sensor_id;sensor_type;location;lat;lon;timestamp;P1;durP1;ratioP1;P2;durP2;ratioP2
52043;SDS011;38053;53.100;6.078;2023-04-24T00:00:08;8.45;;;6.90;;
52043;SDS011;38053;53.100;6.078;2023-04-24T00:02:35;9.05;;;6.95;;
52043;SDS011;38053;53.100;6.078;2023-04-24T00:05:05;9.80;;;6.27;;
52043;SDS011;38053;53.100;6.078;2023-04-24T00:07:31;8.38;;;6.30;;
52043;SDS011;38053;53.100;6.078;2023-04-24T00:09:57;10.68;;;6.38;;
52043;SDS011;38053;53.100;6.078;2023-04-24T00:12:24;7.43;;;5.60;;
52043;SDS011;38053;53.100;6.078;2023-04-24T00:14:50;9.25;;;5.82;;
52043;SDS011;38053;53.100;6.078;2023-04-24T00:17:16;8.35;;;5.82;;
52043;SDS011;38053;53.100;6.078;2023-04-24T00:19:45;7.55;;;5.20;;
52043;SDS011;38053;53.100;6.078;2023-04-24T00:22:11;10.25;;;6.03;;
52043;SDS011;38053;53.100;6.078;2023-04-24T00:24:38;11.65;;;5.75;;
52043;SDS011;38053;53.100;6.078;2023-04-24T00:27:04;9.38;;;6.18;;
52043;SDS011;38053;53.100;6.078;2023-04-24T00:29:30;7.28;;;5.38;;
52043;SDS011;38053;53.100;6.078;2023-04-24T00:31:56;8.70;;;5.20;;
52043;SDS011;38053;53.100;6.078;2023-04-24T00:34:22;8.48;;;5.38;;
52043;SDS011;38053;53.100;6.078;2023-04-24T00:36:48;8.40;;;5.32;;
52043;SDS011;38053;53.100;6.078;2023-04-24T00:39:20;7.25;;;5.32;;
52043;SDS011;38053;53.100;6.078;2023-04-24T00:41:47;7.78;;;5.60;;
52043;SDS011;38053;53.100;6.078;2023-04-24T00:44:13;9.13;;;6.00;;
52043;SDS011;38053;53.100;6.078;2023-04-24T00:46:40;15.55;;;7.75;;
52043;SDS011;38053;53.100;6.078;2023-04-24T00:49:07;8.40;;;6.30;;
52043;SDS011;38053;53.100;6.078;2023-04-24T00:51:33;8.70;;;6.00;;
52043;SDS011;38053;53.100;6.078;2023-04-24T00:53:59;8.65;;;6.10;;
52043;SDS011;38053;53.100;6.078;2023-04-24T00:56:26;9.18;;;5.47;;
52043;SDS011;38053;53.100;6.078;2023-04-24T00:58:52;7.95;;;5.20;;
52043;SDS011;38053;53.100;6.078;2023-04-24T01:01:19;9.73;;;4.53;;
52043;SDS011;38053;53.100;6.078;2023-04-24T01:03:46;6.85;;;4.80;;
52043;SDS011;38053;53.100;6.078;2023-04-24T01:06:12;8.50;;;4.07;;
52043;SDS011;38053;53.100;6.078;2023-04-24T01:08:39;6.50;;;4.30;;
52043;SDS011;38053;53.100;6.078;2023-04-24T01:11:06;5.90;;;4.05;;
52043;SDS011;38053;53.100;6.078;2023-04-24T01:13:32;5.93;;;4.28;;
52043;SDS011;38053;53.100;6.078;2023-04-24T01:15:59;6.55;;;4.25;;
52043;SDS011;38053;53.100;6.078;2023-04-24T01:18:26;7.53;;;4.10;;
52043;SDS011;38053;53.100;6.078;2023-04-24T01:20:53;6.47;;;4.18;;
52043;SDS011;38053;53.100;6.078;2023-04-24T01:23:21;6.20;;;4.43;;
52043;SDS011;38053;53.100;6.078;2023-04-24T01:25:48;10.10;;;3.80;;
52043;SDS011;38053;53.100;6.078;2023-04-24T01:28:14;5.78;;;3.97;;
52043;SDS011;38053;53.100;6.078;2023-04-24T01:30:41;5.78;;;3.17;;
52043;SDS011;38053;53.100;6.078;2023-04-24T01:33:07;6.07;;;3.83;;
52043;SDS011;38053;53.100;6.078;2023-04-24T01:35:33;6.30;;;3.78;;
52043;SDS011;38053;53.100;6.078;2023-04-24T01:38:01;5.45;;;3.45;;
52043;SDS011;38053;53.100;6.078;2023-04-24T01:40:27;7.18;;;3.95;;
52043;SDS011;38053;53.100;6.078;2023-04-24T01:42:53;5.78;;;4.25;;
52043;SDS011;38053;53.100;6.078;2023-04-24T01:45:19;7.65;;;4.60;;
52043;SDS011;38053;53.100;6.078;2023-04-24T01:47:45;5.55;;;3.92;;
52043;SDS011;38053;53.100;6.078;2023-04-24T01:50:11;5.75;;;4.35;;
52043;SDS011;38053;53.100;6.078;2023-04-24T01:52:37;7.28;;;4.45;;
52043;SDS011;38053;53.100;6.078;2023-04-24T01:55:03;6.22;;;4.47;;
52043;SDS011;38053;53.100;6.078;2023-04-24T01:57:30;5.75;;;4.35;;
52043;SDS011;38053;53.100;6.078;2023-04-24T01:59:56;10.35;;;4.95;;
52043;SDS011;38053;53.100;6.078;2023-04-24T02:02:22;6.47;;;4.50;;
52043;SDS011;38053;53.100;6.078;2023-04-24T02:04:53;9.75;;;4.93;;
52043;SDS011;38053;53.100;6.078;2023-04-24T02:07:19;6.38;;;4.88;;
52043;SDS011;38053;53.100;6.078;2023-04-24T02:09:45;7.68;;;5.25;;
52043;SDS011;38053;53.100;6.078;2023-04-24T02:12:11;7.03;;;5.32;;
52043;SDS011;38053;53.100;6.078;2023-04-24T02:14:36;7.72;;;5.80;;
52043;SDS011;38053;53.100;6.078;2023-04-24T02:17:02;9.95;;;6.65;;
52043;SDS011;38053;53.100;6.078;2023-04-24T02:19:28;7.45;;;5.68;;
52043;SDS011;38053;53.100;6.078;2023-04-24T02:21:54;10.30;;;6.03;;
52043;SDS011;38053;53.100;6.078;2023-04-24T02:24:20;10.60;;;6.82;;
52043;SDS011;38053;53.100;6.078;2023-04-24T02:26:45;8.48;;;6.95;;
52043;SDS011;38053;53.100;6.078;2023-04-24T02:29:11;8.80;;;6.70;;
52043;SDS011;38053;53.100;6.078;2023-04-24T02:31:37;11.77;;;7.00;;
52043;SDS011;38053;53.100;6.078;2023-04-24T02:34:02;11.05;;;7.63;;
52043;SDS011;38053;53.100;6.078;2023-04-24T02:36:28;11.10;;;7.82;;
52043;SDS011;38053;53.100;6.078;2023-04-24T02:38:55;9.88;;;7.88;;
52043;SDS011;38053;53.100;6.078;2023-04-24T02:41:21;11.10;;;8.82;;
52043;SDS011;38053;53.100;6.078;2023-04-24T02:43:46;12.52;;;8.85;;
52043;SDS011;38053;53.100;6.078;2023-04-24T02:46:12;9.25;;;7.43;;
52043;SDS011;38053;53.100;6.078;2023-04-24T02:48:38;11.70;;;9.38;;
52043;SDS011;38053;53.100;6.078;2023-04-24T02:51:04;12.00;;;8.77;;
52043;SDS011;38053;53.100;6.078;2023-04-24T02:53:30;12.95;;;8.45;;
52043;SDS011;38053;53.100;6.078;2023-04-24T02:55:55;15.80;;;9.23;;
52043;SDS011;38053;53.100;6.078;2023-04-24T02:58:22;14.25;;;9.32;;
52043;SDS011;38053;53.100;6.078;2023-04-24T03:00:47;12.02;;;10.02;;
52043;SDS011;38053;53.100;6.078;2023-04-24T03:03:13;13.38;;;10.38;;
52043;SDS011;38053;53.100;6.078;2023-04-24T03:05:40;13.52;;;11.40;;
52043;SDS011;38053;53.100;6.078;2023-04-24T03:08:06;14.68;;;11.57;;
52043;SDS011;38053;53.100;6.078;2023-04-24T03:10:31;13.85;;;11.15;;
52043;SDS011;38053;53.100;6.078;2023-04-24T03:12:57;15.43;;;10.85;;
52043;SDS011;38053;53.100;6.078;2023-04-24T03:15:23;12.73;;;10.82;;
52043;SDS011;38053;53.100;6.078;2023-04-24T03:17:49;14.77;;;12.13;;
52043;SDS011;38053;53.100;6.078;2023-04-24T03:20:15;17.25;;;11.55;;
52043;SDS011;38053;53.100;6.078;2023-04-24T03:22:41;16.63;;;11.93;;
52043;SDS011;38053;53.100;6.078;2023-04-24T03:25:06;14.32;;;11.82;;
52043;SDS011;38053;53.100;6.078;2023-04-24T03:27:34;14.80;;;11.68;;
52043;SDS011;38053;53.100;6.078;2023-04-24T03:30:00;15.15;;;11.43;;
52043;SDS011;38053;53.100;6.078;2023-04-24T03:32:27;14.02;;;11.80;;
52043;SDS011;38053;53.100;6.078;2023-04-24T03:34:52;13.95;;;10.90;;
52043;SDS011;38053;53.100;6.078;2023-04-24T03:37:18;12.45;;;8.30;;
52043;SDS011;38053;53.100;6.078;2023-04-24T03:39:44;9.57;;;6.82;;
52043;SDS011;38053;53.100;6.078;2023-04-24T03:42:10;13.45;;;7.25;;
52043;SDS011;38053;53.100;6.078;2023-04-24T03:44:35;14.48;;;6.43;;
52043;SDS011;38053;53.100;6.078;2023-04-24T03:47:01;9.68;;;6.72;;
52043;SDS011;38053;53.100;6.078;2023-04-24T03:49:27;8.05;;;6.75;;
52043;SDS011;38053;53.100;6.078;2023-04-24T03:51:53;8.20;;;5.13;;
52043;SDS011;38053;53.100;6.078;2023-04-24T03:54:28;6.13;;;3.88;;
52043;SDS011;38053;53.100;6.078;2023-04-24T03:56:54;4.43;;;2.67;;
52043;SDS011;38053;53.100;6.078;2023-04-24T03:59:19;3.22;;;2.05;;
52043;SDS011;38053;53.100;6.078;2023-04-24T04:01:45;2.58;;;1.50;;
52043;SDS011;38053;53.100;6.078;2023-04-24T04:04:11;5.22;;;1.80;;
52043;SDS011;38053;53.100;6.078;2023-04-24T04:06:37;5.78;;;1.80;;
52043;SDS011;38053;53.100;6.078;2023-04-24T04:09:03;3.28;;;1.70;;
52043;SDS011;38053;53.100;6.078;2023-04-24T04:11:29;2.30;;;1.52;;
52043;SDS011;38053;53.100;6.078;2023-04-24T04:13:55;3.72;;;1.58;;
52043;SDS011;38053;53.100;6.078;2023-04-24T04:16:22;4.10;;;2.05;;
52043;SDS011;38053;53.100;6.078;2023-04-24T04:18:48;3.78;;;2.30;;
52043;SDS011;38053;53.100;6.078;2023-04-24T04:21:14;5.50;;;2.63;;
52043;SDS011;38053;53.100;6.078;2023-04-24T04:23:39;3.63;;;2.00;;
52043;SDS011;38053;53.100;6.078;2023-04-24T04:26:05;8.20;;;3.63;;
52043;SDS011;38053;53.100;6.078;2023-04-24T04:28:33;7.20;;;2.90;;
52043;SDS011;38053;53.100;6.078;2023-04-24T04:30:58;5.35;;;3.40;;
52043;SDS011;38053;53.100;6.078;2023-04-24T04:33:24;7.53;;;3.95;;
52043;SDS011;38053;53.100;6.078;2023-04-24T04:35:51;7.55;;;3.78;;
52043;SDS011;38053;53.100;6.078;2023-04-24T04:38:17;6.30;;;3.40;;
52043;SDS011;38053;53.100;6.078;2023-04-24T04:40:44;7.80;;;3.58;;
52043;SDS011;38053;53.100;6.078;2023-04-24T04:43:10;5.22;;;3.33;;
52043;SDS011;38053;53.100;6.078;2023-04-24T04:45:38;6.47;;;3.50;;
52043;SDS011;38053;53.100;6.078;2023-04-24T04:48:05;8.52;;;3.20;;
52043;SDS011;38053;53.100;6.078;2023-04-24T04:50:34;5.32;;;3.30;;
52043;SDS011;38053;53.100;6.078;2023-04-24T04:53:02;6.60;;;3.97;;
52043;SDS011;38053;53.100;6.078;2023-04-24T04:55:28;6.88;;;4.05;;
52043;SDS011;38053;53.100;6.078;2023-04-24T04:57:54;9.98;;;4.50;;
52043;SDS011;38053;53.100;6.078;2023-04-24T05:00:21;12.57;;;5.95;;
52043;SDS011;38053;53.100;6.078;2023-04-24T05:02:49;9.25;;;4.22;;
52043;SDS011;38053;53.100;6.078;2023-04-24T05:05:15;8.95;;;5.50;;
52043;SDS011;38053;53.100;6.078;2023-04-24T05:07:42;14.52;;;5.80;;
52043;SDS011;38053;53.100;6.078;2023-04-24T05:10:08;13.60;;;6.40;;
52043;SDS011;38053;53.100;6.078;2023-04-24T05:12:34;13.77;;;6.72;;
52043;SDS011;38053;53.100;6.078;2023-04-24T05:14:59;18.92;;;7.88;;
52043;SDS011;38053;53.100;6.078;2023-04-24T05:17:25;14.20;;;7.70;;
52043;SDS011;38053;53.100;6.078;2023-04-24T05:19:51;8.32;;;5.50;;
52043;SDS011;38053;53.100;6.078;2023-04-24T05:22:17;10.20;;;5.47;;
52043;SDS011;38053;53.100;6.078;2023-04-24T05:24:45;8.95;;;5.63;;
52043;SDS011;38053;53.100;6.078;2023-04-24T05:27:12;7.00;;;4.82;;
52043;SDS011;38053;53.100;6.078;2023-04-24T05:29:38;9.32;;;6.18;;
52043;SDS011;38053;53.100;6.078;2023-04-24T05:32:05;9.35;;;4.85;;
52043;SDS011;38053;53.100;6.078;2023-04-24T05:34:30;11.32;;;6.72;;
52043;SDS011;38053;53.100;6.078;2023-04-24T05:36:56;11.23;;;6.82;;
52043;SDS011;38053;53.100;6.078;2023-04-24T05:39:22;11.68;;;7.13;;
52043;SDS011;38053;53.100;6.078;2023-04-24T05:41:50;14.27;;;8.02;;
52043;SDS011;38053;53.100;6.078;2023-04-24T05:44:16;14.85;;;7.65;;
52043;SDS011;38053;53.100;6.078;2023-04-24T05:46:41;11.05;;;7.60;;
52043;SDS011;38053;53.100;6.078;2023-04-24T05:49:07;15.38;;;9.82;;
52043;SDS011;38053;53.100;6.078;2023-04-24T05:51:33;15.90;;;6.55;;
52043;SDS011;38053;53.100;6.078;2023-04-24T05:53:58;14.90;;;8.60;;
52043;SDS011;38053;53.100;6.078;2023-04-24T05:56:24;12.95;;;5.90;;
52043;SDS011;38053;53.100;6.078;2023-04-24T05:58:50;10.23;;;5.47;;
52043;SDS011;38053;53.100;6.078;2023-04-24T06:01:16;14.48;;;5.20;;
52043;SDS011;38053;53.100;6.078;2023-04-24T06:03:42;11.15;;;4.60;;
52043;SDS011;38053;53.100;6.078;2023-04-24T06:06:08;6.72;;;4.05;;
52043;SDS011;38053;53.100;6.078;2023-04-24T06:08:34;8.38;;;4.10;;
52043;SDS011;38053;53.100;6.078;2023-04-24T06:11:00;7.85;;;3.90;;
52043;SDS011;38053;53.100;6.078;2023-04-24T06:13:26;8.32;;;3.78;;
52043;SDS011;38053;53.100;6.078;2023-04-24T06:15:52;6.40;;;3.13;;
52043;SDS011;38053;53.100;6.078;2023-04-24T06:18:18;7.70;;;3.22;;
52043;SDS011;38053;53.100;6.078;2023-04-24T06:20:44;8.63;;;2.60;;
52043;SDS011;38053;53.100;6.078;2023-04-24T06:23:10;7.00;;;2.33;;
52043;SDS011;38053;53.100;6.078;2023-04-24T06:25:36;4.88;;;2.25;;
52043;SDS011;38053;53.100;6.078;2023-04-24T06:28:03;6.90;;;2.25;;
52043;SDS011;38053;53.100;6.078;2023-04-24T06:30:29;3.55;;;1.70;;
52043;SDS011;38053;53.100;6.078;2023-04-24T06:32:55;9.95;;;2.95;;
52043;SDS011;38053;53.100;6.078;2023-04-24T06:35:20;8.90;;;2.95;;
52043;SDS011;38053;53.100;6.078;2023-04-24T06:37:46;5.43;;;2.15;;
52043;SDS011;38053;53.100;6.078;2023-04-24T06:40:12;12.95;;;2.92;;
52043;SDS011;38053;53.100;6.078;2023-04-24T06:42:38;7.97;;;2.70;;
52043;SDS011;38053;53.100;6.078;2023-04-24T06:45:04;9.98;;;3.17;;
52043;SDS011;38053;53.100;6.078;2023-04-24T06:47:30;7.82;;;3.13;;
52043;SDS011;38053;53.100;6.078;2023-04-24T06:49:56;8.10;;;3.55;;
52043;SDS011;38053;53.100;6.078;2023-04-24T06:52:22;9.00;;;2.78;;
52043;SDS011;38053;53.100;6.078;2023-04-24T06:54:47;7.95;;;3.33;;
52043;SDS011;38053;53.100;6.078;2023-04-24T06:57:13;9.35;;;3.22;;
52043;SDS011;38053;53.100;6.078;2023-04-24T06:59:41;9.27;;;3.60;;
52043;SDS011;38053;53.100;6.078;2023-04-24T07:02:07;11.07;;;3.88;;
52043;SDS011;38053;53.100;6.078;2023-04-24T07:04:32;10.13;;;3.67;;
52043;SDS011;38053;53.100;6.078;2023-04-24T07:06:58;7.85;;;3.13;;
52043;SDS011;38053;53.100;6.078;2023-04-24T07:09:25;19.00;;;4.60;;
52043;SDS011;38053;53.100;6.078;2023-04-24T07:11:51;10.45;;;5.03;;
52043;SDS011;38053;53.100;6.078;2023-04-24T07:14:17;14.25;;;7.47;;
52043;SDS011;38053;53.100;6.078;2023-04-24T07:16:44;18.10;;;7.78;;
52043;SDS011;38053;53.100;6.078;2023-04-24T07:19:10;13.73;;;8.65;;
52043;SDS011;38053;53.100;6.078;2023-04-24T07:21:37;18.55;;;9.90;;
52043;SDS011;38053;53.100;6.078;2023-04-24T07:24:02;24.00;;;9.25;;
52043;SDS011;38053;53.100;6.078;2023-04-24T07:26:29;19.80;;;11.77;;
52043;SDS011;38053;53.100;6.078;2023-04-24T07:28:55;23.08;;;11.60;;
52043;SDS011;38053;53.100;6.078;2023-04-24T07:31:21;20.70;;;13.00;;
52043;SDS011;38053;53.100;6.078;2023-04-24T07:33:47;21.35;;;12.05;;
52043;SDS011;38053;53.100;6.078;2023-04-24T07:36:13;27.75;;;12.70;;
52043;SDS011;38053;53.100;6.078;2023-04-24T07:41:10;43.25;;;12.85;;
52043;SDS011;38053;53.100;6.078;2023-04-24T07:43:36;17.15;;;9.88;;
52043;SDS011;38053;53.100;6.078;2023-04-24T07:46:02;27.13;;;11.27;;
52043;SDS011;38053;53.100;6.078;2023-04-24T07:48:27;16.98;;;8.25;;
52043;SDS011;38053;53.100;6.078;2023-04-24T07:50:53;21.15;;;11.60;;
52043;SDS011;38053;53.100;6.078;2023-04-24T07:53:19;27.83;;;12.30;;
52043;SDS011;38053;53.100;6.078;2023-04-24T07:55:45;22.75;;;12.93;;
52043;SDS011;38053;53.100;6.078;2023-04-24T07:58:11;21.10;;;10.77;;
52043;SDS011;38053;53.100;6.078;2023-04-24T08:00:36;32.13;;;13.77;;
52043;SDS011;38053;53.100;6.078;2023-04-24T08:03:02;34.35;;;15.63;;
52043;SDS011;38053;53.100;6.078;2023-04-24T08:05:28;29.40;;;15.13;;
52043;SDS011;38053;53.100;6.078;2023-04-24T08:07:54;25.08;;;14.35;;
52043;SDS011;38053;53.100;6.078;2023-04-24T08:10:21;23.80;;;14.32;;
52043;SDS011;38053;53.100;6.078;2023-04-24T08:12:48;24.48;;;14.65;;
52043;SDS011;38053;53.100;6.078;2023-04-24T08:15:13;20.38;;;12.20;;
52043;SDS011;38053;53.100;6.078;2023-04-24T08:17:39;17.95;;;11.45;;
52043;SDS011;38053;53.100;6.078;2023-04-24T08:20:05;18.95;;;11.93;;
52043;SDS011;38053;53.100;6.078;2023-04-24T08:22:35;22.65;;;11.30;;
52043;SDS011;38053;53.100;6.078;2023-04-24T08:25:01;17.77;;;11.73;;
52043;SDS011;38053;53.100;6.078;2023-04-24T08:27:27;20.73;;;10.35;;
52043;SDS011;38053;53.100;6.078;2023-04-24T08:29:53;14.35;;;7.45;;
52043;SDS011;38053;53.100;6.078;2023-04-24T08:32:19;21.45;;;10.35;;
52043;SDS011;38053;53.100;6.078;2023-04-24T08:34:45;15.40;;;8.32;;
52043;SDS011;38053;53.100;6.078;2023-04-24T08:37:11;20.17;;;8.32;;
52043;SDS011;38053;53.100;6.078;2023-04-24T08:39:37;18.00;;;8.20;;
52043;SDS011;38053;53.100;6.078;2023-04-24T08:42:04;17.05;;;7.80;;
52043;SDS011;38053;53.100;6.078;2023-04-24T08:44:33;20.80;;;7.60;;
52043;SDS011;38053;53.100;6.078;2023-04-24T08:47:00;27.42;;;8.52;;
52043;SDS011;38053;53.100;6.078;2023-04-24T08:49:29;15.30;;;7.40;;
52043;SDS011;38053;53.100;6.078;2023-04-24T08:51:55;12.82;;;7.80;;
52043;SDS011;38053;53.100;6.078;2023-04-24T08:54:22;20.08;;;6.55;;
52043;SDS011;38053;53.100;6.078;2023-04-24T08:56:48;16.25;;;8.57;;
52043;SDS011;38053;53.100;6.078;2023-04-24T08:59:15;25.00;;;9.40;;
52043;SDS011;38053;53.100;6.078;2023-04-24T09:01:41;19.45;;;7.03;;
52043;SDS011;38053;53.100;6.078;2023-04-24T09:04:08;12.93;;;6.25;;
52043;SDS011;38053;53.100;6.078;2023-04-24T09:06:38;20.75;;;6.32;;
52043;SDS011;38053;53.100;6.078;2023-04-24T09:09:04;21.73;;;7.18;;
52043;SDS011;38053;53.100;6.078;2023-04-24T09:11:30;10.45;;;5.53;;
52043;SDS011;38053;53.100;6.078;2023-04-24T09:14:00;14.80;;;6.30;;
52043;SDS011;38053;53.100;6.078;2023-04-24T09:16:26;22.30;;;5.93;;
52043;SDS011;38053;53.100;6.078;2023-04-24T09:18:52;13.73;;;5.60;;
52043;SDS011;38053;53.100;6.078;2023-04-24T09:21:20;13.68;;;5.20;;
52043;SDS011;38053;53.100;6.078;2023-04-24T09:23:47;12.68;;;4.10;;
52043;SDS011;38053;53.100;6.078;2023-04-24T09:26:24;10.15;;;4.57;;
52043;SDS011;38053;53.100;6.078;2023-04-24T09:28:50;15.68;;;4.57;;
52043;SDS011;38053;53.100;6.078;2023-04-24T09:31:16;12.18;;;3.88;;
52043;SDS011;38053;53.100;6.078;2023-04-24T09:34:05;11.90;;;4.15;;
52043;SDS011;38053;53.100;6.078;2023-04-24T09:36:38;6.90;;;3.28;;
52043;SDS011;38053;53.100;6.078;2023-04-24T09:39:10;14.88;;;3.85;;
52043;SDS011;38053;53.100;6.078;2023-04-24T09:44:17;8.57;;;2.83;;
52043;SDS011;38053;53.100;6.078;2023-04-24T09:46:48;9.40;;;3.60;;
52043;SDS011;38053;53.100;6.078;2023-04-24T09:49:16;8.30;;;2.63;;
52043;SDS011;38053;53.100;6.078;2023-04-24T09:51:45;11.65;;;3.10;;
52043;SDS011;38053;53.100;6.078;2023-04-24T09:54:17;8.55;;;2.83;;
52043;SDS011;38053;53.100;6.078;2023-04-24T09:56:46;7.65;;;2.15;;
52043;SDS011;38053;53.100;6.078;2023-04-24T09:59:13;15.65;;;4.28;;
52043;SDS011;38053;53.100;6.078;2023-04-24T10:01:40;11.88;;;2.90;;
52043;SDS011;38053;53.100;6.078;2023-04-24T10:04:27;13.32;;;4.22;;
52043;SDS011;38053;53.100;6.078;2023-04-24T10:06:57;13.52;;;3.35;;
52043;SDS011;38053;53.100;6.078;2023-04-24T10:09:24;14.40;;;3.95;;
52043;SDS011;38053;53.100;6.078;2023-04-24T10:11:51;9.38;;;2.42;;
52043;SDS011;38053;53.100;6.078;2023-04-24T10:14:19;9.18;;;2.55;;
52043;SDS011;38053;53.100;6.078;2023-04-24T10:16:46;10.55;;;2.63;;
52043;SDS011;38053;53.100;6.078;2023-04-24T10:19:16;14.90;;;2.67;;
52043;SDS011;38053;53.100;6.078;2023-04-24T10:21:45;7.05;;;2.15;;
52043;SDS011;38053;53.100;6.078;2023-04-24T10:24:15;12.63;;;2.88;;
52043;SDS011;38053;53.100;6.078;2023-04-24T10:29:10;10.27;;;2.92;;
52043;SDS011;38053;53.100;6.078;2023-04-24T10:31:37;8.80;;;2.38;;
52043;SDS011;38053;53.100;6.078;2023-04-24T10:34:07;8.15;;;2.10;;
52043;SDS011;38053;53.100;6.078;2023-04-24T10:39:02;12.70;;;2.53;;
52043;SDS011;38053;53.100;6.078;2023-04-24T10:41:31;10.63;;;2.83;;
52043;SDS011;38053;53.100;6.078;2023-04-24T10:44:07;6.88;;;1.75;;
52043;SDS011;38053;53.100;6.078;2023-04-24T10:46:34;11.13;;;2.08;;
52043;SDS011;38053;53.100;6.078;2023-04-24T10:49:04;11.02;;;1.75;;
52043;SDS011;38053;53.100;6.078;2023-04-24T10:51:50;10.52;;;3.42;;
52043;SDS011;38053;53.100;6.078;2023-04-24T10:59:44;6.22;;;2.45;;
52043;SDS011;38053;53.100;6.078;2023-04-24T11:02:10;11.07;;;2.10;;
52043;SDS011;38053;53.100;6.078;2023-04-24T11:04:39;8.90;;;1.98;;
52043;SDS011;38053;53.100;6.078;2023-04-24T11:07:05;9.68;;;1.50;;
52043;SDS011;38053;53.100;6.078;2023-04-24T11:09:31;7.78;;;2.13;;
52043;SDS011;38053;53.100;6.078;2023-04-24T11:12:06;8.65;;;2.00;;
52043;SDS011;38053;53.100;6.078;2023-04-24T11:17:53;13.27;;;2.95;;
52043;SDS011;38053;53.100;6.078;2023-04-24T11:20:16;14.02;;;2.30;;
52043;SDS011;38053;53.100;6.078;2023-04-24T11:22:43;8.43;;;1.95;;
52043;SDS011;38053;53.100;6.078;2023-04-24T11:25:09;12.98;;;3.85;;
52043;SDS011;38053;53.100;6.078;2023-04-24T11:27:43;11.75;;;2.50;;
52043;SDS011;38053;53.100;6.078;2023-04-24T11:30:16;7.63;;;2.28;;
52043;SDS011;38053;53.100;6.078;2023-04-24T11:32:43;9.00;;;2.55;;
52043;SDS011;38053;53.100;6.078;2023-04-24T11:35:12;9.02;;;2.22;;
52043;SDS011;38053;53.100;6.078;2023-04-24T11:37:43;7.20;;;2.53;;
52043;SDS011;38053;53.100;6.078;2023-04-24T11:40:14;6.78;;;2.03;;
52043;SDS011;38053;53.100;6.078;2023-04-24T11:42:45;6.35;;;2.08;;
52043;SDS011;38053;53.100;6.078;2023-04-24T11:45:16;12.25;;;2.30;;
52043;SDS011;38053;53.100;6.078;2023-04-24T11:47:49;11.75;;;1.88;;
52043;SDS011;38053;53.100;6.078;2023-04-24T11:50:23;10.50;;;1.85;;
52043;SDS011;38053;53.100;6.078;2023-04-24T11:52:59;12.32;;;2.50;;
52043;SDS011;38053;53.100;6.078;2023-04-24T11:55:26;7.05;;;1.20;;
52043;SDS011;38053;53.100;6.078;2023-04-24T11:57:54;10.50;;;2.28;;
52043;SDS011;38053;53.100;6.078;2023-04-24T12:00:22;13.57;;;3.22;;
52043;SDS011;38053;53.100;6.078;2023-04-24T12:03:02;7.82;;;1.90;;
52043;SDS011;38053;53.100;6.078;2023-04-24T12:05:33;4.47;;;0.80;;
52043;SDS011;38053;53.100;6.078;2023-04-24T12:07:59;11.05;;;1.80;;
52043;SDS011;38053;53.100;6.078;2023-04-24T12:10:27;5.32;;;1.60;;
52043;SDS011;38053;53.100;6.078;2023-04-24T12:12:55;14.18;;;2.55;;
52043;SDS011;38053;53.100;6.078;2023-04-24T12:15:22;3.35;;;1.33;;
52043;SDS011;38053;53.100;6.078;2023-04-24T12:17:50;10.88;;;1.98;;
52043;SDS011;38053;53.100;6.078;2023-04-24T12:20:16;5.93;;;1.50;;
52043;SDS011;38053;53.100;6.078;2023-04-24T12:25:31;7.60;;;1.45;;
52043;SDS011;38053;53.100;6.078;2023-04-24T12:30:39;10.48;;;1.60;;
52043;SDS011;38053;53.100;6.078;2023-04-24T12:33:09;3.00;;;1.20;;
52043;SDS011;38053;53.100;6.078;2023-04-24T12:35:35;3.50;;;0.95;;
52043;SDS011;38053;53.100;6.078;2023-04-24T12:38:08;4.53;;;1.30;;
52043;SDS011;38053;53.100;6.078;2023-04-24T12:40:34;10.18;;;1.20;;
52043;SDS011;38053;53.100;6.078;2023-04-24T12:43:00;3.75;;;1.00;;
52043;SDS011;38053;53.100;6.078;2023-04-24T12:45:26;10.20;;;1.73;;
52043;SDS011;38053;53.100;6.078;2023-04-24T12:47:53;4.80;;;1.08;;
52043;SDS011;38053;53.100;6.078;2023-04-24T12:50:18;4.63;;;1.17;;
52043;SDS011;38053;53.100;6.078;2023-04-24T12:52:44;17.02;;;2.60;;
52043;SDS011;38053;53.100;6.078;2023-04-24T12:55:10;6.75;;;1.10;;
52043;SDS011;38053;53.100;6.078;2023-04-24T12:57:37;4.97;;;1.15;;
52043;SDS011;38053;53.100;6.078;2023-04-24T13:00:05;4.95;;;1.83;;
52043;SDS011;38053;53.100;6.078;2023-04-24T13:02:32;4.32;;;1.27;;
52043;SDS011;38053;53.100;6.078;2023-04-24T13:04:59;1.67;;;0.68;;
52043;SDS011;38053;53.100;6.078;2023-04-24T13:07:25;3.33;;;0.82;;
52043;SDS011;38053;53.100;6.078;2023-04-24T13:09:51;4.88;;;0.75;;
52043;SDS011;38053;53.100;6.078;2023-04-24T13:12:17;4.22;;;1.75;;
52043;SDS011;38053;53.100;6.078;2023-04-24T13:14:44;4.30;;;1.60;;
52043;SDS011;38053;53.100;6.078;2023-04-24T13:17:10;2.33;;;0.80;;
52043;SDS011;38053;53.100;6.078;2023-04-24T13:19:38;2.20;;;0.65;;
52043;SDS011;38053;53.100;6.078;2023-04-24T13:22:05;4.43;;;0.88;;
52043;SDS011;38053;53.100;6.078;2023-04-24T13:24:32;5.38;;;1.63;;
52043;SDS011;38053;53.100;6.078;2023-04-24T13:26:58;7.93;;;1.13;;
52043;SDS011;38053;53.100;6.078;2023-04-24T13:29:25;3.60;;;1.15;;
52043;SDS011;38053;53.100;6.078;2023-04-24T13:31:51;10.25;;;1.83;;
52043;SDS011;38053;53.100;6.078;2023-04-24T13:34:19;12.00;;;2.33;;
52043;SDS011;38053;53.100;6.078;2023-04-24T13:36:45;12.05;;;2.40;;
52043;SDS011;38053;53.100;6.078;2023-04-24T13:39:11;15.95;;;2.30;;
52043;SDS011;38053;53.100;6.078;2023-04-24T13:41:37;13.75;;;3.15;;
52043;SDS011;38053;53.100;6.078;2023-04-24T13:44:03;13.68;;;2.50;;
52043;SDS011;38053;53.100;6.078;2023-04-24T13:46:30;14.85;;;5.68;;
52043;SDS011;38053;53.100;6.078;2023-04-24T13:48:56;10.88;;;2.55;;
52043;SDS011;38053;53.100;6.078;2023-04-24T13:51:22;9.63;;;1.88;;
52043;SDS011;38053;53.100;6.078;2023-04-24T13:53:49;9.60;;;2.55;;
52043;SDS011;38053;53.100;6.078;2023-04-24T13:56:14;10.07;;;2.58;;
52043;SDS011;38053;53.100;6.078;2023-04-24T13:58:40;15.63;;;3.85;;
52043;SDS011;38053;53.100;6.078;2023-04-24T14:01:06;11.05;;;2.35;;
52043;SDS011;38053;53.100;6.078;2023-04-24T14:03:33;14.68;;;3.25;;
52043;SDS011;38053;53.100;6.078;2023-04-24T14:05:58;18.13;;;2.15;;
52043;SDS011;38053;53.100;6.078;2023-04-24T14:08:24;16.52;;;4.00;;
52043;SDS011;38053;53.100;6.078;2023-04-24T14:10:50;11.05;;;2.22;;
52043;SDS011;38053;53.100;6.078;2023-04-24T14:13:16;14.32;;;2.75;;
52043;SDS011;38053;53.100;6.078;2023-04-24T14:15:42;14.60;;;2.60;;
52043;SDS011;38053;53.100;6.078;2023-04-24T14:18:08;13.15;;;2.20;;
52043;SDS011;38053;53.100;6.078;2023-04-24T14:20:33;12.38;;;2.47;;
52043;SDS011;38053;53.100;6.078;2023-04-24T14:22:59;12.55;;;3.60;;
52043;SDS011;38053;53.100;6.078;2023-04-24T14:25:25;16.88;;;3.45;;
52043;SDS011;38053;53.100;6.078;2023-04-24T14:27:51;18.08;;;3.67;;
52043;SDS011;38053;53.100;6.078;2023-04-24T14:30:17;10.98;;;3.00;;
52043;SDS011;38053;53.100;6.078;2023-04-24T14:32:43;13.07;;;2.63;;
52043;SDS011;38053;53.100;6.078;2023-04-24T14:35:09;14.95;;;3.22;;
52043;SDS011;38053;53.100;6.078;2023-04-24T14:37:35;15.80;;;3.78;;
52043;SDS011;38053;53.100;6.078;2023-04-24T14:40:02;13.50;;;3.40;;
52043;SDS011;38053;53.100;6.078;2023-04-24T14:42:30;14.75;;;4.28;;
52043;SDS011;38053;53.100;6.078;2023-04-24T14:44:56;15.35;;;4.18;;
52043;SDS011;38053;53.100;6.078;2023-04-24T14:47:21;9.18;;;3.13;;
52043;SDS011;38053;53.100;6.078;2023-04-24T14:49:47;13.77;;;2.78;;
52043;SDS011;38053;53.100;6.078;2023-04-24T14:52:13;15.98;;;3.45;;
52043;SDS011;38053;53.100;6.078;2023-04-24T14:54:39;14.10;;;3.45;;
52043;SDS011;38053;53.100;6.078;2023-04-24T14:57:05;13.15;;;3.25;;
52043;SDS011;38053;53.100;6.078;2023-04-24T14:59:31;18.25;;;4.10;;